Time;durP1;ratioP1;P1;durP2;ratioP2;P2;SDS_P1;SDS_P2;PMS_P1;PMS_P2;Temp;Humidity;BMP_temperature;BMP_pressure;BME280_temperature;BME280_humidity;BME280_pressure;Samples;Min_cycle;Max_cycle;Signal;HPM_P1;HPM_P2
2021/11/04 00:01:37;;;;;;;73.18;30.77;;;4.80;99.90;;;;;;5055811;28;20025;-66
2021/11/04 00:04:04;;;;;;;71.70;30.60;;;4.80;99.90;;;;;;5055809;28;20393;-66
2021/11/04 00:06:30;;;;;;;75.55;33.25;;;4.80;99.90;;;;;;5055766;28;20025;-67
2021/11/04 00:08:55;;;;;;;72.85;31.95;;;4.80;99.90;;;;;;5055735;28;20028;-66
2021/11/04 00:11:21;;;;;;;77.60;32.58;;;4.80;99.90;;;;;;5054361;28;20025;-66
2021/11/04 00:13:46;;;;;;;80.05;32.25;;;4.80;99.90;;;;;;5055652;28;20424;-66
2021/11/04 00:16:12;;;;;;;83.72;34.25;;;4.80;99.90;;;;;;5055570;28;20040;-66
2021/11/04 00:18:38;;;;;;;82.70;35.63;;;4.90;99.90;;;;;;5055476;28;20025;-67
2021/11/04 00:21:04;;;;;;;96.00;38.08;;;4.90;99.90;;;;;;5054014;28;20481;-67
2021/11/04 00:23:30;;;;;;;85.32;36.25;;;4.90;99.90;;;;;;5055718;28;20033;-66
2021/11/04 00:25:55;;;;;;;93.25;37.08;;;4.90;99.90;;;;;;5055390;28;20032;-66
2021/11/04 00:28:21;;;;;;;95.78;39.20;;;5.00;99.90;;;;;;5055347;28;20028;-66
2021/11/04 00:30:47;;;;;;;86.38;37.08;;;5.00;99.90;;;;;;5055263;28;20035;-67
2021/11/04 00:33:12;;;;;;;95.82;35.92;;;5.00;99.90;;;;;;5055561;28;20032;-66
2021/11/04 00:35:38;;;;;;;87.65;34.80;;;5.00;99.90;;;;;;5056023;28;20107;-66
2021/11/04 00:38:04;;;;;;;78.88;36.53;;;5.00;99.90;;;;;;5055369;28;20056;-66
2021/11/04 00:40:30;;;;;;;85.80;37.90;;;5.00;99.90;;;;;;5055129;28;20017;-66
2021/11/04 00:42:56;;;;;;;86.28;36.40;;;5.00;99.90;;;;;;5055285;28;20079;-67
2021/11/04 00:45:22;;;;;;;79.28;34.22;;;5.00;99.90;;;;;;5055033;28;20021;-67
2021/11/04 00:47:49;;;;;;;79.22;35.45;;;5.00;99.90;;;;;;5055014;28;20029;-66
2021/11/04 00:50:15;;;;;;;82.68;36.17;;;5.00;99.90;;;;;;5055227;28;20057;-66
2021/11/04 00:52:41;;;;;;;84.63;37.10;;;5.00;99.90;;;;;;5054875;28;20083;-66
2021/11/04 00:55:08;;;;;;;90.20;38.50;;;5.00;99.90;;;;;;5053607;28;20044;-66
2021/11/04 00:57:34;;;;;;;91.13;37.75;;;5.00;99.90;;;;;;5054693;28;20017;-67
2021/11/04 01:00:00;;;;;;;86.15;37.88;;;5.00;99.90;;;;;;5055038;28;20062;-67
2021/11/04 01:02:26;;;;;;;98.20;39.53;;;5.00;99.90;;;;;;5054969;28;20078;-67
2021/11/04 01:04:51;;;;;;;99.45;40.33;;;5.00;99.90;;;;;;5054631;28;20035;-67
2021/11/04 01:07:17;;;;;;;97.00;39.92;;;5.10;99.90;;;;;;5054355;28;20021;-67
2021/11/04 01:09:42;;;;;;;97.78;40.50;;;5.10;99.90;;;;;;5054881;28;20396;-66
2021/11/04 01:12:08;;;;;;;82.95;37.83;;;5.10;99.90;;;;;;5054467;28;20511;-67
2021/11/04 01:14:33;;;;;;;98.75;38.88;;;5.10;99.90;;;;;;5054763;28;20071;-67
2021/11/04 01:16:59;;;;;;;97.45;40.53;;;5.10;99.90;;;;;;5054455;28;20472;-66
2021/11/04 01:19:25;;;;;;;100.53;41.92;;;5.10;99.90;;;;;;5054313;28;20028;-66
2021/11/04 01:21:50;;;;;;;100.82;40.17;;;5.10;99.90;;;;;;5054149;28;20040;-67
2021/11/04 01:24:16;;;;;;;99.40;41.97;;;5.10;99.90;;;;;;5054326;28;20033;-67
2021/11/04 01:26:42;;;;;;;97.95;41.28;;;5.10;99.90;;;;;;5054285;28;20052;-66
2021/11/04 01:29:07;;;;;;;107.13;43.75;;;5.20;99.90;;;;;;5054234;28;20033;-66
2021/11/04 01:31:33;;;;;;;95.47;40.38;;;5.20;99.90;;;;;;5054075;28;20025;-66
2021/11/04 01:33:59;;;;;;;104.57;41.83;;;5.20;99.90;;;;;;5054150;28;20427;-66
2021/11/04 01:36:24;;;;;;;95.38;41.08;;;5.20;99.90;;;;;;5054075;28;20029;-66
2021/11/04 01:38:50;;;;;;;90.70;39.10;;;5.20;99.90;;;;;;5054233;28;20025;-66
2021/11/04 01:41:17;;;;;;;89.82;39.88;;;5.20;99.90;;;;;;5053971;28;20024;-66
2021/11/04 01:43:43;;;;;;;104.47;43.88;;;5.20;99.90;;;;;;5054238;28;20128;-66
2021/11/04 01:46:10;;;;;;;106.50;42.58;;;5.20;99.90;;;;;;5053917;28;20021;-67
2021/11/04 01:48:35;;;;;;;92.03;41.15;;;5.20;99.90;;;;;;5053838;28;20095;-66
2021/11/04 01:51:01;;;;;;;98.97;40.80;;;5.20;99.90;;;;;;5054209;28;20031;-66
2021/11/04 01:53:26;;;;;;;96.22;41.75;;;5.20;99.90;;;;;;5053773;28;20047;-66
2021/11/04 01:55:52;;;;;;;95.50;39.88;;;5.20;99.90;;;;;;5053721;28;20082;-66
2021/11/04 01:58:18;;;;;;;103.97;42.58;;;5.20;99.90;;;;;;5053782;28;20039;-66
2021/11/04 02:00:44;;;;;;;96.07;41.05;;;5.20;99.90;;;;;;5053573;28;20392;-66
2021/11/04 02:03:24;;;;;;;95.85;41.05;;;5.20;99.90;;;;;;5053605;28;20035;-67
2021/11/04 02:06:09;;;;;;;104.95;44.40;;;5.20;99.90;;;;;;5053837;28;20499;-66
2021/11/04 02:09:01;;;;;;;106.03;41.15;;;5.10;99.90;;;;;;5052327;28;20094;-66
2021/11/04 02:11:40;;;;;;;107.47;42.13;;;5.10;99.90;;;;;;5052482;28;20388;-66
2021/11/04 02:14:13;;;;;;;102.28;43.08;;;5.10;99.90;;;;;;5053735;28;20357;-67
2021/11/04 02:16:41;;;;;;;103.70;43.53;;;5.10;99.90;;;;;;5052086;28;20029;-66
2021/11/04 02:19:47;;;;;;;94.55;42.00;;;5.10;99.90;;;;;;5052626;28;20515;-66
2021/11/04 02:22:28;;;;;;;100.97;43.80;;;5.10;99.90;;;;;;5053209;28;20029;-67
2021/11/04 02:25:18;;;;;;;113.18;45.92;;;5.10;99.90;;;;;;5053290;28;20476;-67
2021/11/04 02:27:49;;;;;;;118.57;46.13;;;5.10;99.90;;;;;;5053267;28;20021;-67
2021/11/04 02:30:16;;;;;;;105.68;42.70;;;5.10;99.90;;;;;;5053231;28;20013;-67
2021/11/04 02:32:43;;;;;;;121.63;47.03;;;5.10;99.90;;;;;;5053101;28;20025;-67
2021/11/04 02:35:10;;;;;;;131.43;51.35;;;5.10;99.90;;;;;;5053167;28;20036;-66
2021/11/04 02:37:36;;;;;;;132.57;50.95;;;5.10;99.90;;;;;;5053420;28;20031;-67
2021/11/04 02:40:03;;;;;;;132.15;51.30;;;5.20;99.90;;;;;;5053088;28;20041;-66
2021/11/04 02:42:29;;;;;;;123.53;46.72;;;5.10;99.90;;;;;;5052997;28;20057;-66
2021/11/04 02:44:55;;;;;;;129.02;49.58;;;5.20;99.90;;;;;;5053323;28;20102;-66
2021/11/04 02:47:21;;;;;;;130.05;49.58;;;5.20;99.90;;;;;;5053031;28;20507;-66
2021/11/04 02:49:48;;;;;;;110.03;47.33;;;5.20;99.90;;;;;;5053041;28;20025;-66
2021/11/04 02:52:15;;;;;;;134.00;52.13;;;5.20;99.90;;;;;;5052957;28;20096;-66
2021/11/04 02:54:54;;;;;;;123.03;49.20;;;5.20;99.90;;;;;;5053539;28;20021;-67
2021/11/04 02:57:20;;;;;;;119.78;45.35;;;5.20;99.90;;;;;;5052857;28;20435;-67
2021/11/04 02:59:47;;;;;;;109.25;44.03;;;5.20;99.90;;;;;;5052906;28;20029;-67
2021/11/04 03:02:13;;;;;;;109.85;44.10;;;5.10;99.90;;;;;;5052832;28;20033;-67
2021/11/04 03:04:39;;;;;;;115.10;47.05;;;5.20;99.90;;;;;;5052888;28;20090;-67
2021/11/04 03:07:04;;;;;;;135.23;49.95;;;5.10;99.90;;;;;;5052852;28;20469;-67
2021/11/04 03:09:30;;;;;;;120.85;47.90;;;5.10;99.90;;;;;;5053066;28;20136;-67
2021/11/04 03:11:56;;;;;;;109.80;44.38;;;5.10;99.90;;;;;;5052758;28;20075;-67
2021/11/04 03:14:21;;;;;;;113.80;45.72;;;5.20;99.90;;;;;;5052759;28;20034;-67
2021/11/04 03:16:50;;;;;;;115.50;45.75;;;5.20;99.90;;;;;;5052804;28;20066;-67
2021/11/04 03:19:16;;;;;;;109.15;44.92;;;5.20;99.90;;;;;;5052940;28;20065;-67
2021/11/04 03:21:47;;;;;;;106.78;44.20;;;5.10;99.90;;;;;;5052700;28;20484;-67
2021/11/04 03:24:18;;;;;;;104.68;41.20;;;5.10;99.90;;;;;;5052821;28;20025;-67
2021/11/04 03:27:05;;;;;;;117.10;45.92;;;5.10;99.90;;;;;;5051481;28;20052;-67
2021/11/04 03:29:35;;;;;;;126.43;49.05;;;5.10;99.90;;;;;;5052223;28;20041;-67
2021/11/04 03:32:03;;;;;;;137.30;50.53;;;5.10;99.90;;;;;;5056134;28;20025;-67
2021/11/04 03:34:30;;;;;;;123.10;50.00;;;5.10;99.90;;;;;;5056926;28;20404;-67
2021/11/04 03:36:57;;;;;;;141.32;50.03;;;5.20;99.90;;;;;;5056355;28;20029;-67
2021/11/04 03:39:23;;;;;;;123.60;49.70;;;5.20;99.90;;;;;;5056687;28;20025;-67
2021/11/04 03:41:55;;;;;;;140.90;51.88;;;5.20;99.90;;;;;;5056173;28;20091;-67
2021/11/04 03:44:22;;;;;;;124.68;48.63;;;5.20;99.90;;;;;;5057041;28;20047;-67
2021/11/04 03:46:48;;;;;;;123.72;47.25;;;5.20;99.90;;;;;;5057002;28;20432;-67
2021/11/04 03:49:17;;;;;;;117.65;45.45;;;5.20;99.90;;;;;;5056368;28;20035;-67
2021/11/04 03:51:44;;;;;;;118.90;47.05;;;5.20;99.90;;;;;;5056018;28;20373;-67
2021/11/04 03:54:13;;;;;;;139.30;49.67;;;5.10;99.90;;;;;;5055981;28;20032;-67
2021/11/04 03:56:39;;;;;;;138.20;49.38;;;5.20;99.90;;;;;;5055968;28;20037;-67
2021/11/04 03:59:05;;;;;;;129.07;48.08;;;5.20;99.90;;;;;;5055850;28;20477;-67
2021/11/04 04:01:32;;;;;;;127.60;50.45;;;5.20;99.90;;;;;;5055864;28;20037;-66
2021/11/04 04:03:58;;;;;;;128.07;50.00;;;5.20;99.90;;;;;;5055821;28;20029;-67
2021/11/04 04:06:23;;;;;;;119.10;48.95;;;5.20;99.90;;;;;;5055805;28;20504;-67
2021/11/04 04:08:51;;;;;;;131.95;48.08;;;5.20;99.90;;;;;;5055746;28;20037;-67
2021/11/04 04:11:17;;;;;;;128.23;48.38;;;5.20;99.90;;;;;;5055645;28;20032;-67
2021/11/04 04:13:43;;;;;;;113.55;45.50;;;5.20;99.90;;;;;;5055677;28;20033;-67
2021/11/04 04:16:08;;;;;;;108.40;44.65;;;5.20;99.90;;;;;;5056165;28;20037;-67
2021/11/04 04:18:34;;;;;;;130.32;51.25;;;5.20;99.90;;;;;;5055557;28;20036;-67
2021/11/04 04:21:00;;;;;;;127.95;48.10;;;5.20;99.90;;;;;;5055546;28;20021;-67
2021/11/04 04:23:25;;;;;;;135.93;50.25;;;5.20;99.90;;;;;;5055605;28;20029;-67
2021/11/04 04:25:51;;;;;;;157.02;53.20;;;5.20;99.90;;;;;;5055452;28;20055;-67
2021/11/04 04:28:18;;;;;;;144.25;51.72;;;5.30;99.90;;;;;;5055672;28;20384;-67
2021/11/04 04:30:44;;;;;;;154.20;49.80;;;5.30;99.90;;;;;;5054261;28;20420;-67
2021/11/04 04:33:10;;;;;;;148.55;50.75;;;5.40;99.90;;;;;;5055370;28;20056;-67
2021/11/04 04:35:35;;;;;;;124.93;49.97;;;5.40;99.90;;;;;;5055550;28;20057;-67
2021/11/04 04:38:01;;;;;;;141.77;48.50;;;5.40;99.90;;;;;;5055616;28;20032;-67
2021/11/04 04:40:26;;;;;;;122.03;46.47;;;5.40;99.90;;;;;;5055187;28;20062;-67
2021/11/04 04:42:52;;;;;;;132.98;47.67;;;5.40;99.90;;;;;;5054623;28;20487;-67
2021/11/04 04:45:17;;;;;;;122.70;47.03;;;5.40;99.90;;;;;;5055074;28;20108;-67
2021/11/04 04:47:43;;;;;;;118.95;43.53;;;5.50;99.90;;;;;;5055002;28;20032;-67
2021/11/04 04:50:10;;;;;;;129.00;47.05;;;5.50;99.90;;;;;;5054989;28;20554;-67
2021/11/04 04:52:37;;;;;;;125.72;46.00;;;5.50;99.90;;;;;;5054871;28;20067;-67
2021/11/04 04:55:03;;;;;;;125.50;45.33;;;5.50;99.90;;;;;;5054893;28;20051;-67
2021/11/04 04:57:29;;;;;;;121.18;43.05;;;5.50;99.90;;;;;;5055057;28;20033;-67
2021/11/04 04:59:57;;;;;;;122.60;46.22;;;5.60;99.90;;;;;;5055283;28;20372;-67
2021/11/04 05:02:23;;;;;;;121.30;45.80;;;5.60;99.90;;;;;;5054983;28;20094;-67
2021/11/04 05:04:49;;;;;;;120.20;46.08;;;5.60;99.90;;;;;;5054723;28;20024;-67
2021/11/04 05:07:17;;;;;;;117.22;44.30;;;5.60;99.90;;;;;;5054667;28;20066;-67
2021/11/04 05:09:43;;;;;;;112.43;42.35;;;5.60;99.90;;;;;;5054600;28;20104;-67
2021/11/04 05:12:09;;;;;;;114.50;44.60;;;5.60;99.90;;;;;;5054722;28;20028;-66
2021/11/04 05:14:35;;;;;;;117.13;43.10;;;5.60;99.90;;;;;;5054793;28;20040;-66
2021/11/04 05:17:00;;;;;;;110.15;43.00;;;5.60;99.90;;;;;;5054576;28;20055;-66
2021/11/04 05:19:26;;;;;;;116.40;44.33;;;5.70;99.90;;;;;;5054624;28;20092;-66
2021/11/04 05:21:52;;;;;;;122.25;45.58;;;5.70;99.90;;;;;;5054197;28;20554;-66
2021/11/04 05:24:18;;;;;;;132.00;49.85;;;5.70;99.90;;;;;;5054602;28;20444;-66
2021/11/04 05:26:43;;;;;;;114.97;43.00;;;5.80;99.90;;;;;;5054288;28;20059;-67
2021/11/04 05:29:09;;;;;;;121.30;46.80;;;5.80;99.90;;;;;;5054758;28;20467;-66
2021/11/04 05:31:35;;;;;;;111.40;42.65;;;5.80;99.90;;;;;;5054100;28;20025;-66
2021/11/04 05:34:01;;;;;;;102.97;41.30;;;5.80;99.90;;;;;;5054134;28;20025;-66
2021/11/04 05:36:27;;;;;;;114.82;42.67;;;5.80;99.90;;;;;;5052833;28;20031;-66
2021/11/04 05:38:54;;;;;;;107.13;41.80;;;5.90;99.90;;;;;;5054259;28;20033;-67
2021/11/04 05:41:20;;;;;;;114.18;41.58;;;5.90;99.90;;;;;;5053942;28;20504;-66
2021/11/04 05:43:45;;;;;;;115.57;42.80;;;5.90;99.90;;;;;;5053951;28;20052;-66
2021/11/04 05:46:11;;;;;;;117.63;44.80;;;5.90;99.90;;;;;;5053922;28;20067;-66
2021/11/04 05:48:38;;;;;;;108.68;40.75;;;5.90;99.90;;;;;;5053876;28;20029;-66
2021/11/04 05:51:04;;;;;;;115.00;42.38;;;5.90;99.90;;;;;;5053742;28;20092;-66
2021/11/04 05:53:29;;;;;;;107.57;41.90;;;5.90;99.90;;;;;;5053069;28;20039;-66
2021/11/04 05:55:55;;;;;;;100.43;38.95;;;6.00;99.90;;;;;;5053480;28;20021;-66
2021/11/04 05:58:21;;;;;;;114.22;42.95;;;6.00;99.90;;;;;;5053537;28;20025;-66
2021/11/04 06:00:46;;;;;;;111.57;43.10;;;6.00;99.90;;;;;;5053828;28;20025;-66
2021/11/04 06:03:13;;;;;;;113.90;43.55;;;6.00;99.90;;;;;;5053640;28;20502;-66
2021/11/04 06:05:39;;;;;;;110.55;43.05;;;6.10;99.90;;;;;;5053559;28;20500;-66
2021/11/04 06:08:05;;;;;;;116.70;42.53;;;6.00;99.90;;;;;;5053836;28;20025;-67
2021/11/04 06:10:30;;;;;;;138.75;49.10;;;6.10;99.90;;;;;;5053489;28;20036;-66
2021/11/04 06:12:56;;;;;;;140.73;47.58;;;6.10;99.90;;;;;;5053418;28;20035;-66
2021/11/04 06:15:22;;;;;;;123.75;48.40;;;6.10;99.90;;;;;;5053401;28;20064;-66
2021/11/04 06:17:47;;;;;;;112.60;44.55;;;6.10;99.90;;;;;;5053363;28;20044;-66
2021/11/04 06:20:13;;;;;;;123.85;45.03;;;6.10;99.90;;;;;;5053671;28;20029;-66
2021/11/04 06:22:38;;;;;;;135.50;49.35;;;6.10;99.90;;;;;;5053241;28;20029;-66
2021/11/04 06:25:05;;;;;;;125.82;44.88;;;6.10;99.90;;;;;;5054084;28;20027;-66
2021/11/04 06:27:31;;;;;;;123.50;43.20;;;6.10;99.90;;;;;;5053278;28;20021;-66
2021/11/04 06:29:56;;;;;;;121.65;45.75;;;6.20;99.90;;;;;;5053224;28;20040;-67
2021/11/04 06:32:22;;;;;;;106.88;42.42;;;6.10;99.90;;;;;;5053215;28;20180;-66
2021/11/04 06:34:48;;;;;;;114.18;42.40;;;6.10;99.90;;;;;;5053180;28;20039;-66
2021/11/04 06:37:13;;;;;;;115.40;46.92;;;6.10;99.90;;;;;;5053139;28;20025;-66
2021/11/04 06:39:39;;;;;;;122.35;45.45;;;6.10;99.90;;;;;;5053026;28;20087;-66
2021/11/04 06:42:05;;;;;;;120.68;44.08;;;6.10;99.90;;;;;;5053039;28;20021;-66
2021/11/04 06:44:31;;;;;;;105.32;41.10;;;6.10;99.90;;;;;;5053026;28;20112;-67
2021/11/04 06:47:00;;;;;;;119.70;45.20;;;6.10;99.90;;;;;;5053078;28;20067;-66
2021/11/04 06:49:28;;;;;;;127.85;46.72;;;6.10;99.90;;;;;;5053302;28;20073;-67
2021/11/04 06:51:56;;;;;;;140.23;48.20;;;6.10;99.90;;;;;;5052986;28;20031;-67
2021/11/04 06:54:24;;;;;;;134.50;48.03;;;6.10;99.90;;;;;;5053252;28;20033;-66
2021/11/04 06:56:51;;;;;;;152.75;54.08;;;6.20;99.90;;;;;;5052958;28;20039;-67
2021/11/04 06:59:18;;;;;;;142.35;51.60;;;6.20;99.90;;;;;;5053076;28;20116;-67
2021/11/04 07:01:58;;;;;;;143.40;53.60;;;6.20;99.90;;;;;;5052837;28;20025;-67
2021/11/04 07:04:26;;;;;;;144.90;53.20;;;6.20;99.90;;;;;;5052902;28;20021;-66
2021/11/04 07:07:01;;;;;;;162.23;52.45;;;6.30;99.90;;;;;;5056435;28;20488;-67
2021/11/04 07:09:28;;;;;;;131.00;49.20;;;6.20;99.90;;;;;;5057235;28;20052;-67
2021/11/04 07:11:56;;;;;;;128.82;48.63;;;6.30;99.90;;;;;;5057322;28;20036;-67
2021/11/04 07:14:26;;;;;;;146.07;52.17;;;6.30;99.90;;;;;;5057067;28;20029;-67
2021/11/04 07:16:52;;;;;;;131.60;46.20;;;6.30;99.90;;;;;;5057051;28;20082;-67
2021/11/04 07:19:19;;;;;;;146.32;50.00;;;6.30;99.90;;;;;;5056915;28;20032;-67
2021/11/04 07:21:57;;;;;;;141.98;47.03;;;6.30;99.90;;;;;;5081206;22;20041;-69
2021/11/04 07:24:30;;;;;;;121.30;45.65;;;6.30;99.90;;;;;;5056824;28;20036;-67
2021/11/04 07:27:07;;;;;;;133.48;45.55;;;6.40;99.90;;;;;;5056840;28;20063;-67
2021/11/04 07:29:39;;;;;;;146.43;46.58;;;6.40;99.90;;;;;;5056850;28;20028;-67
2021/11/04 07:32:07;;;;;;;131.38;46.83;;;6.40;99.90;;;;;;5056661;28;20029;-67
2021/11/04 07:34:32;;;;;;;129.20;45.90;;;6.40;99.90;;;;;;5056443;28;20491;-67
2021/11/04 07:37:00;;;;;;;146.55;45.92;;;6.50;99.90;;;;;;5056382;28;20036;-67
2021/11/04 07:39:26;;;;;;;120.50;42.80;;;6.60;99.90;;;;;;5056282;28;20040;-67
2021/11/04 07:41:52;;;;;;;122.32;44.88;;;6.60;99.90;;;;;;5056209;28;20092;-67
2021/11/04 07:44:18;;;;;;;141.40;45.05;;;6.60;99.90;;;;;;5056535;28;20415;-67
2021/11/04 07:46:44;;;;;;;144.25;45.97;;;6.70;99.90;;;;;;5056267;28;20101;-67
2021/11/04 07:49:09;;;;;;;143.20;44.83;;;6.70;99.90;;;;;;5056689;28;20079;-67
2021/11/04 07:51:35;;;;;;;125.85;44.55;;;6.70;99.90;;;;;;5056047;28;20029;-67
2021/11/04 07:54:01;;;;;;;129.05;45.65;;;6.70;99.90;;;;;;5056349;28;20033;-67
2021/11/04 07:56:26;;;;;;;116.07;42.38;;;6.80;99.90;;;;;;5056263;28;20025;-67
2021/11/04 07:58:52;;;;;;;113.30;39.47;;;6.90;99.90;;;;;;5056433;28;20040;-67
2021/11/04 08:01:17;;;;;;;110.95;40.05;;;6.90;99.90;;;;;;5055984;28;20021;-67
2021/11/04 08:03:44;;;;;;;111.35;38.78;;;6.90;99.90;;;;;;5055917;28;20020;-67
2021/11/04 08:06:10;;;;;;;106.07;37.97;;;7.00;99.90;;;;;;5056181;28;20428;-67
2021/11/04 08:08:36;;;;;;;100.55;34.65;;;7.00;99.90;;;;;;5056073;28;20071;-67
2021/11/04 08:11:02;;;;;;;94.78;34.80;;;7.00;99.90;;;;;;5056078;28;20109;-67
2021/11/04 08:13:27;;;;;;;82.57;30.38;;;7.00;99.90;;;;;;5055649;28;20495;-67
2021/11/04 08:15:53;;;;;;;79.05;31.95;;;7.00;99.90;;;;;;5055970;28;20036;-67
2021/11/04 08:18:19;;;;;;;88.78;34.25;;;7.10;99.90;;;;;;5054400;28;20100;-67
2021/11/04 08:20:44;;;;;;;80.70;31.40;;;7.10;99.90;;;;;;5055886;28;20017;-67
2021/11/04 08:23:11;;;;;;;81.82;32.92;;;7.10;99.90;;;;;;5055365;28;20515;-67
2021/11/04 08:25:38;;;;;;;80.68;32.22;;;7.20;99.90;;;;;;5055757;28;20029;-67
2021/11/04 08:28:03;;;;;;;74.68;29.80;;;7.20;99.90;;;;;;5055670;28;20412;-67
2021/11/04 08:30:29;;;;;;;75.38;30.95;;;7.20;99.90;;;;;;5055409;28;20025;-67
2021/11/04 08:32:54;;;;;;;76.65;29.70;;;7.20;99.90;;;;;;5055283;28;20021;-67
2021/11/04 08:35:20;;;;;;;79.05;32.05;;;7.20;99.90;;;;;;5055392;28;20029;-67
2021/11/04 08:37:46;;;;;;;77.65;33.42;;;7.30;99.90;;;;;;5055270;28;20052;-67
2021/11/04 08:40:12;;;;;;;82.10;32.28;;;7.30;99.90;;;;;;5055673;28;20106;-67
2021/11/04 08:42:38;;;;;;;88.22;34.28;;;7.40;99.90;;;;;;5055362;28;20032;-67
2021/11/04 08:45:05;;;;;;;78.20;33.13;;;7.40;99.90;;;;;;5055129;28;20071;-67
2021/11/04 08:47:31;;;;;;;90.60;33.20;;;7.50;99.90;;;;;;5055006;28;20392;-67
2021/11/04 08:49:58;;;;;;;78.03;33.05;;;7.50;99.90;;;;;;5055311;28;20032;-67
2021/11/04 08:52:26;;;;;;;76.85;29.80;;;7.40;99.90;;;;;;5055060;28;20032;-67
2021/11/04 08:54:52;;;;;;;89.40;34.50;;;7.40;99.90;;;;;;5054927;28;20504;-67
2021/11/04 08:57:18;;;;;;;79.07;33.25;;;7.40;99.90;;;;;;5054926;28;20037;-67
2021/11/04 08:59:44;;;;;;;90.55;35.05;;;7.40;99.90;;;;;;5054998;28;20111;-67
2021/11/04 09:02:15;;;;;;;78.38;32.40;;;7.50;99.90;;;;;;5054872;28;20056;-67
2021/11/04 09:04:42;;;;;;;91.85;34.33;;;7.60;99.90;;;;;;5055041;28;20036;-67
2021/11/04 09:07:20;;;;;;;82.32;33.53;;;7.60;99.90;;;;;;5055004;28;20020;-67
2021/11/04 09:09:46;;;;;;;89.07;36.28;;;7.60;99.90;;;;;;5054943;28;20040;-67
2021/11/04 09:12:13;;;;;;;85.65;36.45;;;7.70;99.90;;;;;;5054566;28;20036;-67
2021/11/04 09:14:39;;;;;;;89.88;36.33;;;7.70;99.90;;;;;;5054524;28;20029;-67
2021/11/04 09:17:05;;;;;;;86.80;35.47;;;7.70;99.90;;;;;;5054519;28;20025;-67
2021/11/04 09:19:31;;;;;;;88.00;37.30;;;7.80;99.90;;;;;;5054339;28;20029;-67
2021/11/04 09:21:59;;;;;;;78.93;35.70;;;7.80;99.90;;;;;;5054421;28;20044;-67
2021/11/04 09:24:25;;;;;;;84.68;35.08;;;7.80;99.90;;;;;;5054344;28;20484;-67
2021/11/04 09:26:51;;;;;;;78.15;33.55;;;7.90;99.90;;;;;;5054363;28;20025;-67
2021/11/04 09:29:16;;;;;;;79.20;32.20;;;8.00;99.90;;;;;;5054068;28;20024;-67
2021/11/04 09:31:42;;;;;;;75.38;33.70;;;8.00;99.90;;;;;;5054167;28;20020;-67
2021/11/04 09:34:07;;;;;;;67.47;31.15;;;8.00;99.90;;;;;;5054171;28;20535;-67
2021/11/04 09:36:34;;;;;;;68.53;30.17;;;8.00;99.90;;;;;;5054128;28;20455;-67
2021/11/04 09:39:02;;;;;;;67.80;31.27;;;8.00;99.90;;;;;;5054291;28;20033;-67
2021/11/04 09:41:28;;;;;;;61.17;28.83;;;8.10;99.90;;;;;;5054217;28;20025;-67
2021/11/04 09:43:57;;;;;;;61.22;29.27;;;8.20;99.90;;;;;;5053964;28;20051;-67
2021/11/04 09:46:24;;;;;;;61.88;29.25;;;8.20;99.90;;;;;;5054513;28;20468;-67
2021/11/04 09:48:54;;;;;;;56.17;27.40;;;8.20;99.90;;;;;;5053888;28;20035;-67
2021/11/04 09:51:21;;;;;;;47.40;25.35;;;8.30;99.90;;;;;;5054118;28;20040;-67
2021/11/04 09:53:49;;;;;;;53.78;25.40;;;8.30;99.90;;;;;;5053880;28;20111;-67
2021/11/04 09:56:17;;;;;;;52.63;24.33;;;8.20;99.90;;;;;;5053954;28;20025;-67
2021/11/04 09:58:43;;;;;;;53.45;26.00;;;8.30;99.90;;;;;;5053966;28;20036;-67
2021/11/04 10:01:26;;;;;;;49.67;23.67;;;8.30;99.90;;;;;;5054259;28;20017;-67
2021/11/04 10:03:53;;;;;;;69.50;33.25;;;8.30;99.90;;;;;;5053744;28;20102;-67
2021/11/04 10:06:28;;;;;;;45.67;24.42;;;8.30;99.90;;;;;;5053874;28;20040;-67
2021/11/04 10:08:58;;;;;;;51.47;28.35;;;8.30;99.90;;;;;;5053859;28;20439;-67
2021/11/04 10:11:33;;;;;;;93.90;44.80;;;8.30;99.90;;;;;;5053732;28;20025;-67
2021/11/04 10:14:02;;;;;;;43.55;21.77;;;8.40;99.90;;;;;;5053821;28;20029;-67
2021/11/04 10:16:28;;;;;;;47.35;23.38;;;8.30;99.90;;;;;;5053706;28;20021;-67
2021/11/04 10:18:54;;;;;;;42.00;21.00;;;8.30;99.90;;;;;;5053364;28;20032;-67
2021/11/04 10:21:44;;;;;;;50.30;24.00;;;8.40;99.90;;;;;;5053484;28;20029;-67
2021/11/04 10:24:20;;;;;;;39.85;18.95;;;8.60;99.90;;;;;;5053384;28;20108;-67
2021/11/04 10:26:46;;;;;;;39.20;18.27;;;8.50;99.90;;;;;;5053598;28;20028;-67
2021/11/04 10:29:14;;;;;;;34.67;18.67;;;8.60;99.90;;;;;;5053301;28;20024;-67
2021/11/04 10:31:43;;;;;;;33.40;18.55;;;8.70;99.90;;;;;;5053440;28;20033;-67
2021/11/04 10:34:29;;;;;;;32.47;18.40;;;8.70;99.90;;;;;;5053497;28;20033;-67
2021/11/04 10:37:06;;;;;;;35.72;19.00;;;8.80;99.90;;;;;;5053772;28;20112;-67
2021/11/04 10:39:37;;;;;;;32.17;18.33;;;8.90;99.90;;;;;;5052965;28;20108;-67
2021/11/04 10:42:03;;;;;;;26.75;17.35;;;8.90;99.90;;;;;;5053254;28;20055;-67
2021/11/04 10:44:31;;;;;;;37.65;16.92;;;9.00;99.90;;;;;;5053336;28;20071;-67
2021/11/04 10:46:57;;;;;;;28.80;16.13;;;9.00;99.90;;;;;;5053344;28;20499;-67
2021/11/04 10:49:24;;;;;;;33.28;18.20;;;9.00;99.90;;;;;;5053022;28;20481;-67
2021/11/04 10:52:03;;;;;;;30.52;17.70;;;9.10;99.90;;;;;;5053002;28;20063;-67
2021/11/04 10:54:42;;;;;;;30.65;18.35;;;9.20;99.90;;;;;;5053258;28;20112;-67
2021/11/04 10:57:07;;;;;;;29.25;18.50;;;9.10;99.90;;;;;;5052990;28;20483;-67
2021/11/04 10:59:41;;;;;;;32.25;18.70;;;9.10;99.90;;;;;;5052877;28;20036;-67
2021/11/04 11:02:06;;;;;;;28.27;18.35;;;9.20;99.90;;;;;;5053487;28;20104;-67
2021/11/04 11:04:33;;;;;;;32.50;18.83;;;9.20;99.90;;;;;;5053148;28;20520;-67
2021/11/04 11:06:59;;;;;;;31.23;19.52;;;9.30;99.90;;;;;;5052878;28;20017;-67
2021/11/04 11:09:27;;;;;;;40.55;21.08;;;9.30;99.90;;;;;;5053152;28;20032;-67
2021/11/04 11:11:55;;;;;;;33.00;20.13;;;9.40;99.90;;;;;;5053053;28;20029;-67
2021/11/04 11:14:34;;;;;;;30.60;18.55;;;9.50;99.90;;;;;;5053082;28;20111;-67
2021/11/04 11:17:01;;;;;;;32.10;20.13;;;9.50;99.90;;;;;;5052790;28;20500;-67
2021/11/04 11:19:29;;;;;;;29.38;19.50;;;9.50;99.90;;;;;;5052954;28;20429;-67
2021/11/04 11:21:55;;;;;;;29.75;19.88;;;9.50;99.90;;;;;;5052773;28;20052;-67
2021/11/04 11:24:38;;;;;;;33.20;20.85;;;9.50;99.90;;;;;;5053048;28;20021;-67
2021/11/04 11:27:07;;;;;;;33.20;21.47;;;9.40;99.90;;;;;;5053007;28;20088;-67
2021/11/04 11:29:38;;;;;;;33.33;21.73;;;9.40;99.90;;;;;;5052991;28;20256;-67
2021/11/04 11:32:15;;;;;;;37.08;22.50;;;9.40;99.90;;;;;;5052590;28;20028;-67
2021/11/04 11:34:41;;;;;;;34.08;21.45;;;9.50;99.90;;;;;;5068132;28;20029;-67
2021/11/04 11:37:09;;;;;;;33.53;22.17;;;9.60;99.90;;;;;;5052601;28;20549;-67
2021/11/04 11:39:49;;;;;;;34.33;22.10;;;9.50;99.90;;;;;;5052908;28;20064;-67
2021/11/04 11:42:22;;;;;;;35.95;22.20;;;9.40;99.90;;;;;;5052704;28;20028;-67
2021/11/04 11:44:47;;;;;;;33.58;21.55;;;9.40;99.90;;;;;;5052854;28;20044;-67
2021/11/04 11:47:16;;;;;;;37.35;23.98;;;9.40;99.90;;;;;;5052809;28;20032;-67
2021/11/04 11:49:46;;;;;;;31.67;22.02;;;9.50;99.90;;;;;;5052518;28;20032;-67
2021/11/04 11:52:39;;;;;;;28.85;19.88;;;9.70;99.90;;;;;;5054642;28;20033;-67
2021/11/04 11:55:07;;;;;;;24.55;17.85;;;9.80;99.90;;;;;;5056674;28;20044;-67
2021/11/04 11:57:34;;;;;;;27.75;17.90;;;9.70;99.90;;;;;;5056040;28;20035;-67
2021/11/04 11:59:59;;;;;;;24.73;16.92;;;9.70;99.90;;;;;;5055986;28;20060;-67
2021/11/04 12:02:37;;;;;;;28.10;17.35;;;9.60;99.90;;;;;;5056152;28;20064;-67
2021/11/04 12:05:32;;;;;;;22.08;15.13;;;9.60;99.90;;;;;;5056157;28;20392;-67
2021/11/04 12:08:21;;;;;;;25.23;16.30;;;9.40;99.90;;;;;;5056166;28;20079;-68
2021/11/04 12:10:47;;;;;;;23.52;16.67;;;9.40;99.90;;;;;;5050408;28;20033;-67
2021/11/04 12:13:32;;;;;;;26.65;16.23;;;9.40;99.90;;;;;;5055966;28;20031;-67
2021/11/04 12:16:20;;;;;;;25.48;15.57;;;9.30;99.90;;;;;;5056023;28;20025;-67
2021/11/04 12:18:58;;;;;;;22.58;14.23;;;9.30;99.90;;;;;;5055620;28;20021;-67
2021/11/04 12:21:37;;;;;;;21.85;13.93;;;9.40;99.90;;;;;;5055450;28;20021;-67
2021/11/04 12:24:05;;;;;;;20.70;14.20;;;9.40;99.90;;;;;;5055875;28;20108;-67
2021/11/04 12:26:34;;;;;;;21.73;13.70;;;9.30;99.90;;;;;;5055550;28;20021;-67
2021/11/04 12:29:01;;;;;;;16.60;12.23;;;9.30;99.90;;;;;;5055754;28;20048;-67
2021/11/04 12:31:28;;;;;;;24.95;12.77;;;9.30;99.90;;;;;;5055400;28;20086;-67
2021/11/04 12:34:01;;;;;;;17.98;11.93;;;9.30;99.90;;;;;;5055870;28;20033;-67
2021/11/04 12:36:45;;;;;;;17.45;12.57;;;9.30;99.90;;;;;;5055397;28;20044;-67
2021/11/04 12:39:22;;;;;;;;;;;9.20;99.90;;;;;;5055943;28;20402;-67